sensor_id;sensor_type;location;lat;lon;timestamp;P1;durP1;ratioP1;P2;durP2;ratioP2
73814;SDS011;62145;55.648;37.602;2022-08-30T07:33:11;20.75;;;12.23;;
73814;SDS011;62145;55.648;37.602;2022-08-30T07:35:36;18.13;;;11.65;;
73814;SDS011;62145;55.648;37.602;2022-08-30T07:38:02;18.20;;;11.60;;
73814;SDS011;62145;55.648;37.602;2022-08-30T07:40:28;24.70;;;12.47;;
73814;SDS011;62145;55.648;37.602;2022-08-30T07:42:54;18.30;;;12.32;;
73814;SDS011;62145;55.648;37.602;2022-08-30T07:45:21;20.08;;;12.30;;
73814;SDS011;62145;55.648;37.602;2022-08-30T07:47:46;21.40;;;12.13;;
73814;SDS011;62145;55.648;37.602;2022-08-30T07:50:12;20.17;;;12.10;;
73814;SDS011;62145;55.648;37.602;2022-08-30T07:52:38;20.00;;;12.60;;
73814;SDS011;62145;55.648;37.602;2022-08-30T07:55:04;21.45;;;12.43;;
73814;SDS011;62145;55.648;37.602;2022-08-30T07:57:30;22.23;;;11.90;;
73814;SDS011;62145;55.648;37.602;2022-08-30T07:59:59;24.15;;;12.70;;
73814;SDS011;62145;55.648;37.602;2022-08-30T08:02:25;23.42;;;12.75;;
73814;SDS011;62145;55.648;37.602;2022-08-30T08:04:51;21.50;;;12.30;;
73814;SDS011;62145;55.648;37.602;2022-08-30T08:07:17;19.98;;;12.02;;
73814;SDS011;62145;55.648;37.602;2022-08-30T08:09:43;22.90;;;12.53;;
73814;SDS011;62145;55.648;37.602;2022-08-30T08:12:09;21.30;;;12.18;;
73814;SDS011;62145;55.648;37.602;2022-08-30T08:14:35;18.23;;;12.35;;
73814;SDS011;62145;55.648;37.602;2022-08-30T08:17:01;19.60;;;12.13;;
73814;SDS011;62145;55.648;37.602;2022-08-30T08:19:29;19.73;;;12.07;;
73814;SDS011;62145;55.648;37.602;2022-08-30T08:21:55;20.85;;;12.13;;
73814;SDS011;62145;55.648;37.602;2022-08-30T08:24:27;18.15;;;12.05;;
73814;SDS011;62145;55.648;37.602;2022-08-30T08:26:54;19.13;;;12.27;;
73814;SDS011;62145;55.648;37.602;2022-08-30T08:29:20;20.38;;;12.30;;
73814;SDS011;62145;55.648;37.602;2022-08-30T08:31:46;16.40;;;11.80;;
73814;SDS011;62145;55.648;37.602;2022-08-30T08:34:13;17.65;;;11.43;;
73814;SDS011;62145;55.648;37.602;2022-08-30T08:36:39;18.08;;;11.73;;
73814;SDS011;62145;55.648;37.602;2022-08-30T08:39:06;16.60;;;12.25;;
73814;SDS011;62145;55.648;37.602;2022-08-30T08:50:05;22.02;;;13.85;;
73814;SDS011;62145;55.648;37.602;2022-08-30T08:55:51;21.07;;;14.40;;
73814;SDS011;62145;55.648;37.602;2022-08-30T08:58:22;21.38;;;14.48;;
73814;SDS011;62145;55.648;37.602;2022-08-30T09:00:48;22.15;;;13.85;;
73814;SDS011;62145;55.648;37.602;2022-08-30T09:03:15;25.30;;;14.88;;
73814;SDS011;62145;55.648;37.602;2022-08-30T09:05:43;21.73;;;14.52;;
73814;SDS011;62145;55.648;37.602;2022-08-30T09:08:12;22.20;;;15.00;;
73814;SDS011;62145;55.648;37.602;2022-08-30T09:10:40;22.02;;;14.98;;
73814;SDS011;62145;55.648;37.602;2022-08-30T09:13:08;24.38;;;15.48;;
73814;SDS011;62145;55.648;37.602;2022-08-30T09:15:34;23.92;;;15.38;;
73814;SDS011;62145;55.648;37.602;2022-08-30T09:18:02;23.55;;;15.55;;
73814;SDS011;62145;55.648;37.602;2022-08-30T09:20:37;24.33;;;15.80;;
73814;SDS011;62145;55.648;37.602;2022-08-30T09:23:27;22.00;;;15.98;;
73814;SDS011;62145;55.648;37.602;2022-08-30T09:28:30;26.95;;;16.02;;
73814;SDS011;62145;55.648;37.602;2022-08-30T09:31:04;26.38;;;16.77;;
73814;SDS011;62145;55.648;37.602;2022-08-30T09:33:33;24.53;;;16.60;;
73814;SDS011;62145;55.648;37.602;2022-08-30T09:36:19;24.88;;;16.67;;
73814;SDS011;62145;55.648;37.602;2022-08-30T09:41:53;24.48;;;17.15;;
73814;SDS011;62145;55.648;37.602;2022-08-30T09:44:23;22.55;;;16.05;;
73814;SDS011;62145;55.648;37.602;2022-08-30T09:49:30;26.88;;;17.65;;
73814;SDS011;62145;55.648;37.602;2022-08-30T09:54:54;27.88;;;16.92;;
73814;SDS011;62145;55.648;37.602;2022-08-30T10:00:21;24.63;;;15.70;;
73814;SDS011;62145;55.648;37.602;2022-08-30T10:08:49;24.45;;;16.25;;
73814;SDS011;62145;55.648;37.602;2022-08-30T10:11:26;26.08;;;16.85;;
73814;SDS011;62145;55.648;37.602;2022-08-30T10:14:31;27.80;;;17.17;;
73814;SDS011;62145;55.648;37.602;2022-08-30T10:23:05;21.40;;;14.93;;
73814;SDS011;62145;55.648;37.602;2022-08-30T10:30:45;25.88;;;16.50;;
73814;SDS011;62145;55.648;37.602;2022-08-30T10:33:17;23.98;;;15.38;;
73814;SDS011;62145;55.648;37.602;2022-08-30T10:35:55;23.52;;;15.18;;
73814;SDS011;62145;55.648;37.602;2022-08-30T10:38:24;19.20;;;14.30;;
73814;SDS011;62145;55.648;37.602;2022-08-30T10:40:56;25.43;;;15.43;;
73814;SDS011;62145;55.648;37.602;2022-08-30T10:48:58;23.90;;;14.85;;
73814;SDS011;62145;55.648;37.602;2022-08-30T10:51:29;23.42;;;16.20;;
73814;SDS011;62145;55.648;37.602;2022-08-30T10:54:00;22.23;;;14.23;;
73814;SDS011;62145;55.648;37.602;2022-08-30T10:56:33;22.35;;;14.75;;
73814;SDS011;62145;55.648;37.602;2022-08-30T10:59:00;21.23;;;15.57;;
73814;SDS011;62145;55.648;37.602;2022-08-30T11:01:44;22.50;;;14.15;;
73814;SDS011;62145;55.648;37.602;2022-08-30T11:13:13;21.83;;;13.75;;
73814;SDS011;62145;55.648;37.602;2022-08-30T11:18:28;21.83;;;14.05;;
73814;SDS011;62145;55.648;37.602;2022-08-30T11:21:15;20.47;;;13.93;;
73814;SDS011;62145;55.648;37.602;2022-08-30T11:42:33;22.42;;;11.95;;
73814;SDS011;62145;55.648;37.602;2022-08-30T11:45:44;18.08;;;11.10;;
73814;SDS011;62145;55.648;37.602;2022-08-30T12:03:54;17.58;;;10.23;;
73814;SDS011;62145;55.648;37.602;2022-08-30T12:14:42;16.87;;;10.53;;
73814;SDS011;62145;55.648;37.602;2022-08-30T12:17:18;16.83;;;9.73;;
73814;SDS011;62145;55.648;37.602;2022-08-30T12:20:26;16.30;;;10.20;;
73814;SDS011;62145;55.648;37.602;2022-08-30T12:23:15;20.80;;;10.93;;
73814;SDS011;62145;55.648;37.602;2022-08-30T12:25:43;16.70;;;10.63;;
73814;SDS011;62145;55.648;37.602;2022-08-30T12:28:22;19.47;;;10.87;;
73814;SDS011;62145;55.648;37.602;2022-08-30T12:30:50;18.48;;;10.25;;
73814;SDS011;62145;55.648;37.602;2022-08-30T12:33:27;19.85;;;11.80;;
73814;SDS011;62145;55.648;37.602;2022-08-30T12:36:03;20.00;;;11.25;;
73814;SDS011;62145;55.648;37.602;2022-08-30T12:38:29;19.23;;;10.50;;
73814;SDS011;62145;55.648;37.602;2022-08-30T12:40:56;18.42;;;11.02;;
73814;SDS011;62145;55.648;37.602;2022-08-30T12:43:29;21.42;;;11.18;;
73814;SDS011;62145;55.648;37.602;2022-08-30T12:46:01;14.45;;;9.85;;
73814;SDS011;62145;55.648;37.602;2022-08-30T12:48:31;15.60;;;9.37;;
73814;SDS011;62145;55.648;37.602;2022-08-30T12:50:59;13.48;;;8.45;;
73814;SDS011;62145;55.648;37.602;2022-08-30T12:55:58;12.82;;;8.05;;
73814;SDS011;62145;55.648;37.602;2022-08-30T12:58:35;14.93;;;7.80;;
73814;SDS011;62145;55.648;37.602;2022-08-30T13:01:23;14.33;;;7.90;;
73814;SDS011;62145;55.648;37.602;2022-08-30T13:09:06;15.00;;;7.97;;
73814;SDS011;62145;55.648;37.602;2022-08-30T13:11:32;14.10;;;8.10;;
73814;SDS011;62145;55.648;37.602;2022-08-30T13:17:05;13.80;;;6.65;;
73814;SDS011;62145;55.648;37.602;2022-08-30T13:20:05;15.85;;;8.30;;
73814;SDS011;62145;55.648;37.602;2022-08-30T13:22:32;17.95;;;8.43;;
73814;SDS011;62145;55.648;37.602;2022-08-30T13:24:59;12.18;;;8.27;;
73814;SDS011;62145;55.648;37.602;2022-08-30T13:27:26;15.00;;;8.60;;
73814;SDS011;62145;55.648;37.602;2022-08-30T13:29:53;15.02;;;7.97;;
73814;SDS011;62145;55.648;37.602;2022-08-30T13:32:19;14.35;;;7.80;;
73814;SDS011;62145;55.648;37.602;2022-08-30T13:34:45;15.57;;;8.10;;
73814;SDS011;62145;55.648;37.602;2022-08-30T13:37:13;14.70;;;7.90;;
73814;SDS011;62145;55.648;37.602;2022-08-30T13:39:40;11.63;;;7.27;;
73814;SDS011;62145;55.648;37.602;2022-08-30T13:42:06;13.73;;;7.82;;
73814;SDS011;62145;55.648;37.602;2022-08-30T13:44:32;18.10;;;7.45;;
73814;SDS011;62145;55.648;37.602;2022-08-30T13:46:58;14.20;;;7.63;;
73814;SDS011;62145;55.648;37.602;2022-08-30T13:49:26;18.30;;;8.07;;
73814;SDS011;62145;55.648;37.602;2022-08-30T13:51:53;17.58;;;8.13;;
73814;SDS011;62145;55.648;37.602;2022-08-30T13:54:19;18.55;;;8.30;;
73814;SDS011;62145;55.648;37.602;2022-08-30T13:56:52;19.58;;;8.40;;
73814;SDS011;62145;55.648;37.602;2022-08-30T13:59:18;16.93;;;8.10;;
73814;SDS011;62145;55.648;37.602;2022-08-30T14:01:45;18.73;;;8.50;;
73814;SDS011;62145;55.648;37.602;2022-08-30T14:04:12;21.02;;;8.13;;
73814;SDS011;62145;55.648;37.602;2022-08-30T14:06:37;14.43;;;8.10;;
73814;SDS011;62145;55.648;37.602;2022-08-30T14:09:04;20.57;;;8.27;;
73814;SDS011;62145;55.648;37.602;2022-08-30T14:11:31;18.42;;;7.93;;
73814;SDS011;62145;55.648;37.602;2022-08-30T14:13:57;19.60;;;8.32;;
73814;SDS011;62145;55.648;37.602;2022-08-30T14:16:23;21.20;;;8.25;;
73814;SDS011;62145;55.648;37.602;2022-08-30T14:18:49;18.83;;;8.10;;
73814;SDS011;62145;55.648;37.602;2022-08-30T14:21:15;15.20;;;7.75;;
73814;SDS011;62145;55.648;37.602;2022-08-30T14:23:41;15.88;;;7.80;;
73814;SDS011;62145;55.648;37.602;2022-08-30T14:26:17;14.17;;;7.13;;
73814;SDS011;62145;55.648;37.602;2022-08-30T14:28:46;16.92;;;7.45;;
73814;SDS011;62145;55.648;37.602;2022-08-30T14:31:13;15.10;;;7.70;;
73814;SDS011;62145;55.648;37.602;2022-08-30T14:33:40;14.45;;;7.53;;
73814;SDS011;62145;55.648;37.602;2022-08-30T14:36:07;16.02;;;7.65;;
73814;SDS011;62145;55.648;37.602;2022-08-30T14:38:33;14.97;;;6.77;;
73814;SDS011;62145;55.648;37.602;2022-08-30T14:41:02;20.17;;;7.30;;
73814;SDS011;62145;55.648;37.602;2022-08-30T14:43:28;16.35;;;6.85;;
73814;SDS011;62145;55.648;37.602;2022-08-30T14:45:56;19.37;;;7.33;;
73814;SDS011;62145;55.648;37.602;2022-08-30T14:48:22;17.77;;;6.80;;
73814;SDS011;62145;55.648;37.602;2022-08-30T14:50:48;14.65;;;6.43;;
73814;SDS011;62145;55.648;37.602;2022-08-30T14:53:14;19.08;;;6.53;;
73814;SDS011;62145;55.648;37.602;2022-08-30T14:55:40;18.77;;;6.77;;
73814;SDS011;62145;55.648;37.602;2022-08-30T14:58:06;20.38;;;6.90;;
73814;SDS011;62145;55.648;37.602;2022-08-30T15:00:35;15.23;;;6.25;;
73814;SDS011;62145;55.648;37.602;2022-08-30T15:03:03;19.50;;;6.40;;
73814;SDS011;62145;55.648;37.602;2022-08-30T15:05:29;16.87;;;6.10;;
73814;SDS011;62145;55.648;37.602;2022-08-30T15:07:56;15.50;;;6.10;;
73814;SDS011;62145;55.648;37.602;2022-08-30T15:10:22;16.77;;;6.18;;
73814;SDS011;62145;55.648;37.602;2022-08-30T15:12:49;18.27;;;5.45;;
73814;SDS011;62145;55.648;37.602;2022-08-30T15:15:18;13.48;;;5.90;;
73814;SDS011;62145;55.648;37.602;2022-08-30T15:17:47;16.17;;;5.57;;
73814;SDS011;62145;55.648;37.602;2022-08-30T15:20:14;16.85;;;5.90;;
73814;SDS011;62145;55.648;37.602;2022-08-30T15:22:43;15.07;;;5.32;;
73814;SDS011;62145;55.648;37.602;2022-08-30T15:25:09;14.35;;;5.68;;
73814;SDS011;62145;55.648;37.602;2022-08-30T15:27:36;17.63;;;5.97;;
73814;SDS011;62145;55.648;37.602;2022-08-30T15:30:02;18.60;;;5.50;;
73814;SDS011;62145;55.648;37.602;2022-08-30T15:32:29;15.77;;;5.30;;
73814;SDS011;62145;55.648;37.602;2022-08-30T15:34:55;18.40;;;5.93;;
73814;SDS011;62145;55.648;37.602;2022-08-30T15:37:21;16.73;;;5.20;;
73814;SDS011;62145;55.648;37.602;2022-08-30T15:39:51;18.02;;;5.53;;
73814;SDS011;62145;55.648;37.602;2022-08-30T15:42:17;18.15;;;5.70;;
73814;SDS011;62145;55.648;37.602;2022-08-30T15:44:44;17.38;;;5.95;;
73814;SDS011;62145;55.648;37.602;2022-08-30T15:47:10;16.65;;;5.75;;
73814;SDS011;62145;55.648;37.602;2022-08-30T15:49:36;17.97;;;5.33;;
73814;SDS011;62145;55.648;37.602;2022-08-30T15:52:03;14.93;;;6.05;;
73814;SDS011;62145;55.648;37.602;2022-08-30T15:54:30;17.00;;;6.30;;
73814;SDS011;62145;55.648;37.602;2022-08-30T15:56:56;17.43;;;5.57;;
73814;SDS011;62145;55.648;37.602;2022-08-30T15:59:28;12.93;;;5.57;;
73814;SDS011;62145;55.648;37.602;2022-08-30T16:01:54;18.60;;;6.05;;
73814;SDS011;62145;55.648;37.602;2022-08-30T16:04:20;15.30;;;6.10;;
73814;SDS011;62145;55.648;37.602;2022-08-30T16:06:46;17.13;;;5.90;;
73814;SDS011;62145;55.648;37.602;2022-08-30T16:09:12;19.73;;;6.10;;
73814;SDS011;62145;55.648;37.602;2022-08-30T16:11:38;19.52;;;6.43;;
73814;SDS011;62145;55.648;37.602;2022-08-30T16:14:04;18.80;;;6.45;;
73814;SDS011;62145;55.648;37.602;2022-08-30T16:16:31;21.30;;;6.40;;
73814;SDS011;62145;55.648;37.602;2022-08-30T16:18:57;19.38;;;6.15;;
73814;SDS011;62145;55.648;37.602;2022-08-30T16:21:26;22.63;;;6.20;;
73814;SDS011;62145;55.648;37.602;2022-08-30T16:23:57;20.80;;;6.70;;
73814;SDS011;62145;55.648;37.602;2022-08-30T16:26:24;21.93;;;6.67;;
73814;SDS011;62145;55.648;37.602;2022-08-30T16:28:51;20.13;;;6.60;;
73814;SDS011;62145;55.648;37.602;2022-08-30T16:31:17;16.00;;;6.55;;
73814;SDS011;62145;55.648;37.602;2022-08-30T16:33:44;19.80;;;6.53;;
73814;SDS011;62145;55.648;37.602;2022-08-30T16:36:10;19.48;;;6.45;;
73814;SDS011;62145;55.648;37.602;2022-08-30T16:38:37;20.30;;;6.63;;
73814;SDS011;62145;55.648;37.602;2022-08-30T16:41:04;18.35;;;6.50;;
73814;SDS011;62145;55.648;37.602;2022-08-30T16:43:32;19.52;;;6.90;;
73814;SDS011;62145;55.648;37.602;2022-08-30T16:45:58;21.67;;;6.97;;
73814;SDS011;62145;55.648;37.602;2022-08-30T16:48:25;21.25;;;6.90;;
73814;SDS011;62145;55.648;37.602;2022-08-30T16:50:51;21.63;;;7.23;;
73814;SDS011;62145;55.648;37.602;2022-08-30T16:53:18;21.30;;;7.10;;
73814;SDS011;62145;55.648;37.602;2022-08-30T16:55:44;18.98;;;6.85;;
73814;SDS011;62145;55.648;37.602;2022-08-30T16:58:10;20.90;;;7.22;;
73814;SDS011;62145;55.648;37.602;2022-08-30T17:00:36;24.37;;;6.77;;
73814;SDS011;62145;55.648;37.602;2022-08-30T17:03:03;21.48;;;8.23;;
73814;SDS011;62145;55.648;37.602;2022-08-30T17:05:30;24.80;;;7.30;;
73814;SDS011;62145;55.648;37.602;2022-08-30T17:07:56;22.92;;;7.40;;
73814;SDS011;62145;55.648;37.602;2022-08-30T17:10:22;22.27;;;7.60;;
73814;SDS011;62145;55.648;37.602;2022-08-30T17:12:48;24.33;;;7.85;;
73814;SDS011;62145;55.648;37.602;2022-08-30T17:15:14;22.40;;;7.43;;
73814;SDS011;62145;55.648;37.602;2022-08-30T17:17:41;20.73;;;7.60;;
73814;SDS011;62145;55.648;37.602;2022-08-30T17:20:08;16.50;;;7.17;;
73814;SDS011;62145;55.648;37.602;2022-08-30T17:22:34;21.67;;;9.63;;
73814;SDS011;62145;55.648;37.602;2022-08-30T17:25:00;19.83;;;7.38;;
73814;SDS011;62145;55.648;37.602;2022-08-30T17:27:26;20.10;;;7.43;;
73814;SDS011;62145;55.648;37.602;2022-08-30T17:29:52;25.20;;;7.60;;
73814;SDS011;62145;55.648;37.602;2022-08-30T17:32:18;17.67;;;7.03;;
73814;SDS011;62145;55.648;37.602;2022-08-30T17:34:44;20.35;;;7.28;;
73814;SDS011;62145;55.648;37.602;2022-08-30T17:37:10;18.02;;;7.05;;
73814;SDS011;62145;55.648;37.602;2022-08-30T17:39:36;17.23;;;7.13;;
73814;SDS011;62145;55.648;37.602;2022-08-30T17:42:02;21.58;;;7.72;;
73814;SDS011;62145;55.648;37.602;2022-08-30T17:44:29;22.20;;;7.65;;
73814;SDS011;62145;55.648;37.602;2022-08-30T17:46:57;16.80;;;7.10;;
73814;SDS011;62145;55.648;37.602;2022-08-30T17:49:24;20.42;;;7.35;;
73814;SDS011;62145;55.648;37.602;2022-08-30T17:51:51;20.90;;;7.83;;
73814;SDS011;62145;55.648;37.602;2022-08-30T17:54:18;19.77;;;7.70;;
73814;SDS011;62145;55.648;37.602;2022-08-30T17:56:45;19.27;;;7.72;;
73814;SDS011;62145;55.648;37.602;2022-08-30T17:59:12;16.23;;;7.22;;
73814;SDS011;62145;55.648;37.602;2022-08-30T18:01:39;17.17;;;7.05;;
73814;SDS011;62145;55.648;37.602;2022-08-30T18:04:06;20.30;;;8.23;;
73814;SDS011;62145;55.648;37.602;2022-08-30T18:06:33;23.10;;;8.60;;
73814;SDS011;62145;55.648;37.602;2022-08-30T18:09:00;19.38;;;9.02;;
73814;SDS011;62145;55.648;37.602;2022-08-30T18:11:26;22.52;;;10.15;;
73814;SDS011;62145;55.648;37.602;2022-08-30T18:13:52;21.23;;;7.93;;
73814;SDS011;62145;55.648;37.602;2022-08-30T18:16:18;19.10;;;7.25;;
73814;SDS011;62145;55.648;37.602;2022-08-30T18:18:44;16.70;;;7.63;;
73814;SDS011;62145;55.648;37.602;2022-08-30T18:21:11;19.43;;;7.90;;
73814;SDS011;62145;55.648;37.602;2022-08-30T18:23:37;17.33;;;6.90;;
73814;SDS011;62145;55.648;37.602;2022-08-30T18:26:03;19.73;;;7.53;;
73814;SDS011;62145;55.648;37.602;2022-08-30T18:28:29;18.92;;;7.57;;
73814;SDS011;62145;55.648;37.602;2022-08-30T18:30:57;21.17;;;7.90;;
73814;SDS011;62145;55.648;37.602;2022-08-30T18:33:24;16.87;;;7.60;;
73814;SDS011;62145;55.648;37.602;2022-08-30T18:35:51;17.85;;;7.75;;
73814;SDS011;62145;55.648;37.602;2022-08-30T18:38:18;19.20;;;7.85;;
73814;SDS011;62145;55.648;37.602;2022-08-30T18:40:44;19.52;;;8.55;;
73814;SDS011;62145;55.648;37.602;2022-08-30T18:43:10;16.80;;;8.03;;
73814;SDS011;62145;55.648;37.602;2022-08-30T18:45:36;17.63;;;8.25;;
73814;SDS011;62145;55.648;37.602;2022-08-30T18:48:03;22.95;;;8.40;;
73814;SDS011;62145;55.648;37.602;2022-08-30T18:50:30;22.58;;;8.65;;
73814;SDS011;62145;55.648;37.602;2022-08-30T18:52:57;20.67;;;8.57;;
73814;SDS011;62145;55.648;37.602;2022-08-30T18:55:23;19.57;;;8.53;;
73814;SDS011;62145;55.648;37.602;2022-08-30T18:57:49;21.02;;;8.57;;
73814;SDS011;62145;55.648;37.602;2022-08-30T19:00:15;20.85;;;8.48;;
73814;SDS011;62145;55.648;37.602;2022-08-30T19:02:42;20.92;;;8.57;;
73814;SDS011;62145;55.648;37.602;2022-08-30T19:05:11;21.90;;;8.37;;
73814;SDS011;62145;55.648;37.602;2022-08-30T19:07:40;18.48;;;8.60;;
73814;SDS011;62145;55.648;37.602;2022-08-30T19:10:07;17.67;;;8.90;;
73814;SDS011;62145;55.648;37.602;2022-08-30T19:12:34;19.90;;;7.72;;
73814;SDS011;62145;55.648;37.602;2022-08-30T19:15:00;22.53;;;8.10;;
73814;SDS011;62145;55.648;37.602;2022-08-30T19:17:26;21.42;;;8.27;;
73814;SDS011;62145;55.648;37.602;2022-08-30T19:19:52;21.73;;;8.50;;
73814;SDS011;62145;55.648;37.602;2022-08-30T19:22:19;17.33;;;8.05;;
73814;SDS011;62145;55.648;37.602;2022-08-30T19:24:46;18.90;;;8.50;;
73814;SDS011;62145;55.648;37.602;2022-08-30T19:27:13;39.17;;;13.13;;
73814;SDS011;62145;55.648;37.602;2022-08-30T19:29:39;22.10;;;9.20;;
73814;SDS011;62145;55.648;37.602;2022-08-30T19:32:05;20.07;;;8.77;;
73814;SDS011;62145;55.648;37.602;2022-08-30T19:34:31;19.17;;;8.73;;
73814;SDS011;62145;55.648;37.602;2022-08-30T19:36:57;19.20;;;8.55;;
73814;SDS011;62145;55.648;37.602;2022-08-30T19:39:23;15.87;;;7.70;;
73814;SDS011;62145;55.648;37.602;2022-08-30T19:41:48;24.15;;;8.52;;
73814;SDS011;62145;55.648;37.602;2022-08-30T19:44:14;28.48;;;9.13;;
73814;SDS011;62145;55.648;37.602;2022-08-30T19:46:40;23.27;;;8.50;;
73814;SDS011;62145;55.648;37.602;2022-08-30T19:49:06;25.08;;;8.50;;
73814;SDS011;62145;55.648;37.602;2022-08-30T19:51:34;25.85;;;8.93;;
73814;SDS011;62145;55.648;37.602;2022-08-30T19:54:04;18.67;;;8.70;;
73814;SDS011;62145;55.648;37.602;2022-08-30T19:56:30;24.10;;;9.25;;
73814;SDS011;62145;55.648;37.602;2022-08-30T19:58:57;24.58;;;9.10;;
73814;SDS011;62145;55.648;37.602;2022-08-30T20:01:23;19.20;;;8.75;;
73814;SDS011;62145;55.648;37.602;2022-08-30T20:03:49;25.57;;;8.77;;
73814;SDS011;62145;55.648;37.602;2022-08-30T20:06:15;21.38;;;8.32;;
73814;SDS011;62145;55.648;37.602;2022-08-30T20:08:42;22.60;;;8.45;;
73814;SDS011;62145;55.648;37.602;2022-08-30T20:11:11;18.52;;;7.88;;
73814;SDS011;62145;55.648;37.602;2022-08-30T20:13:39;23.10;;;8.23;;
73814;SDS011;62145;55.648;37.602;2022-08-30T20:16:05;21.52;;;8.43;;
73814;SDS011;62145;55.648;37.602;2022-08-30T20:18:31;22.23;;;8.63;;
73814;SDS011;62145;55.648;37.602;2022-08-30T20:20:57;22.00;;;8.87;;
73814;SDS011;62145;55.648;37.602;2022-08-30T20:23:23;21.00;;;8.30;;
73814;SDS011;62145;55.648;37.602;2022-08-30T20:25:50;18.17;;;8.60;;
73814;SDS011;62145;55.648;37.602;2022-08-30T20:28:16;18.00;;;8.43;;
73814;SDS011;62145;55.648;37.602;2022-08-30T20:30:42;16.23;;;8.15;;
73814;SDS011;62145;55.648;37.602;2022-08-30T20:33:08;16.45;;;7.60;;
73814;SDS011;62145;55.648;37.602;2022-08-30T20:35:34;22.47;;;8.17;;
73814;SDS011;62145;55.648;37.602;2022-08-30T20:38:00;17.80;;;7.90;;
73814;SDS011;62145;55.648;37.602;2022-08-30T20:40:33;19.67;;;7.65;;
73814;SDS011;62145;55.648;37.602;2022-08-30T20:43:01;20.77;;;8.48;;
73814;SDS011;62145;55.648;37.602;2022-08-30T20:45:27;21.07;;;8.40;;
73814;SDS011;62145;55.648;37.602;2022-08-30T20:47:53;19.17;;;8.02;;
73814;SDS011;62145;55.648;37.602;2022-08-30T20:50:18;19.07;;;7.60;;
73814;SDS011;62145;55.648;37.602;2022-08-30T20:52:44;18.07;;;8.23;;
73814;SDS011;62145;55.648;37.602;2022-08-30T20:55:11;14.20;;;7.55;;
73814;SDS011;62145;55.648;37.602;2022-08-30T20:57:38;17.30;;;7.70;;
73814;SDS011;62145;55.648;37.602;2022-08-30T21:00:04;19.58;;;7.88;;
73814;SDS011;62145;55.648;37.602;2022-08-30T21:02:32;17.40;;;7.63;;
73814;SDS011;62145;55.648;37.602;2022-08-30T21:04:58;16.30;;;8.38;;
73814;SDS011;62145;55.648;37.602;2022-08-30T21:07:24;16.80;;;7.57;;
73814;SDS011;62145;55.648;37.602;2022-08-30T21:09:50;17.58;;;7.40;;
73814;SDS011;62145;55.648;37.602;2022-08-30T21:12:18;15.32;;;7.38;;
73814;SDS011;62145;55.648;37.602;2022-08-30T21:14:44;14.90;;;6.63;;
73814;SDS011;62145;55.648;37.602;2022-08-30T21:17:10;13.83;;;6.50;;
73814;SDS011;62145;55.648;37.602;2022-08-30T21:19:36;14.20;;;6.75;;
73814;SDS011;62145;55.648;37.602;2022-08-30T21:22:02;12.55;;;6.70;;
73814;SDS011;62145;55.648;37.602;2022-08-30T21:24:29;14.02;;;7.28;;
73814;SDS011;62145;55.648;37.602;2022-08-30T21:26:56;14.93;;;7.07;;
73814;SDS011;62145;55.648;37.602;2022-08-30T21:29:23;12.20;;;6.10;;
73814;SDS011;62145;55.648;37.602;2022-08-30T21:31:49;14.95;;;5.85;;
73814;SDS011;62145;55.648;37.602;2022-08-30T21:34:15;12.48;;;5.75;;
73814;SDS011;62145;55.648;37.602;2022-08-30T21:36:42;12.98;;;5.63;;
73814;SDS011;62145;55.648;37.602;2022-08-30T21:39:12;13.43;;;5.47;;
73814;SDS011;62145;55.648;37.602;2022-08-30T21:41:40;12.35;;;5.90;;
73814;SDS011;62145;55.648;37.602;2022-08-30T21:44:09;11.60;;;5.50;;
73814;SDS011;62145;55.648;37.602;2022-08-30T21:46:41;14.73;;;5.30;;
73814;SDS011;62145;55.648;37.602;2022-08-30T21:49:08;9.57;;;5.28;;
73814;SDS011;62145;55.648;37.602;2022-08-30T21:51:36;12.43;;;5.57;;
73814;SDS011;62145;55.648;37.602;2022-08-30T21:54:04;8.35;;;5.00;;
73814;SDS011;62145;55.648;37.602;2022-08-30T21:56:33;11.90;;;5.22;;
73814;SDS011;62145;55.648;37.602;2022-08-30T21:58:59;11.73;;;5.32;;
73814;SDS011;62145;55.648;37.602;2022-08-30T22:01:26;9.80;;;5.55;;
73814;SDS011;62145;55.648;37.602;2022-08-30T22:03:54;10.07;;;4.60;;
73814;SDS011;62145;55.648;37.602;2022-08-30T22:06:21;16.05;;;5.45;;
73814;SDS011;62145;55.648;37.602;2022-08-30T22:08:47;11.85;;;5.15;;
73814;SDS011;62145;55.648;37.602;2022-08-30T22:11:14;12.93;;;5.22;;
73814;SDS011;62145;55.648;37.602;2022-08-30T22:13:42;12.48;;;5.32;;
73814;SDS011;62145;55.648;37.602;2022-08-30T22:16:10;11.43;;;5.50;;
73814;SDS011;62145;55.648;37.602;2022-08-30T22:18:36;13.65;;;5.80;;
73814;SDS011;62145;55.648;37.602;2022-08-30T22:21:04;11.25;;;5.45;;
73814;SDS011;62145;55.648;37.602;2022-08-30T22:23:33;13.20;;;5.40;;
73814;SDS011;62145;55.648;37.602;2022-08-30T22:25:59;12.95;;;5.35;;
73814;SDS011;62145;55.648;37.602;2022-08-30T22:28:26;8.53;;;5.10;;
73814;SDS011;62145;55.648;37.602;2022-08-30T22:30:52;9.57;;;5.15;;
73814;SDS011;62145;55.648;37.602;2022-08-30T22:33:18;11.45;;;5.72;;
73814;SDS011;62145;55.648;37.602;2022-08-30T22:35:45;10.63;;;5.03;;
73814;SDS011;62145;55.648;37.602;2022-08-30T22:38:11;11.70;;;4.80;;
73814;SDS011;62145;55.648;37.602;2022-08-30T22:40:51;9.73;;;5.35;;
73814;SDS011;62145;55.648;37.602;2022-08-30T22:43:18;13.60;;;5.00;;
73814;SDS011;62145;55.648;37.602;2022-08-30T22:45:44;9.77;;;4.90;;
73814;SDS011;62145;55.648;37.602;2022-08-30T22:48:10;11.77;;;5.40;;
73814;SDS011;62145;55.648;37.602;2022-08-30T22:50:36;11.77;;;5.38;;
73814;SDS011;62145;55.648;37.602;2022-08-30T22:53:02;12.98;;;5.30;;
73814;SDS011;62145;55.648;37.602;2022-08-30T22:55:28;11.37;;;5.50;;
73814;SDS011;62145;55.648;37.602;2022-08-30T22:57:54;12.35;;;5.78;;
73814;SDS011;62145;55.648;37.602;2022-08-30T23:00:20;14.77;;;5.88;;
73814;SDS011;62145;55.648;37.602;2022-08-30T23:02:47;14.13;;;5.20;;
73814;SDS011;62145;55.648;37.602;2022-08-30T23:05:14;13.27;;;5.80;;
73814;SDS011;62145;55.648;37.602;2022-08-30T23:07:41;12.88;;;5.53;;
73814;SDS011;62145;55.648;37.602;2022-08-30T23:10:08;14.02;;;6.15;;
73814;SDS011;62145;55.648;37.602;2022-08-30T23:12:36;12.15;;;5.75;;
73814;SDS011;62145;55.648;37.602;2022-08-30T23:15:03;13.35;;;6.13;;
73814;SDS011;62145;55.648;37.602;2022-08-30T23:17:30;11.87;;;5.53;;
73814;SDS011;62145;55.648;37.602;2022-08-30T23:19:55;12.70;;;6.15;;
73814;SDS011;62145;55.648;37.602;2022-08-30T23:22:24;11.35;;;6.30;;
73814;SDS011;62145;55.648;37.602;2022-08-30T23:24:50;14.40;;;6.07;;
73814;SDS011;62145;55.648;37.602;2022-08-30T23:27:35;12.30;;;6.20;;
73814;SDS011;62145;55.648;37.602;2022-08-30T23:30:19;13.02;;;6.00;;
73814;SDS011;62145;55.648;37.602;2022-08-30T23:33:04;11.73;;;6.28;;
73814;SDS011;62145;55.648;37.602;2022-08-30T23:35:48;12.20;;;5.85;;
73814;SDS011;62145;55.648;37.602;2022-08-30T23:38:32;12.60;;;6.50;;
73814;SDS011;62145;55.648;37.602;2022-08-30T23:41:17;11.30;;;6.03;;
73814;SDS011;62145;55.648;37.602;2022-08-30T23:44:01;15.13;;;6.30;;
73814;SDS011;62145;55.648;37.602;2022-08-30T23:46:45;11.80;;;5.53;;
73814;SDS011;62145;55.648;37.602;2022-08-30T23:49:29;13.25;;;6.07;;
73814;SDS011;62145;55.648;37.602;2022-08-30T23:52:14;15.70;;;6.00;;